Time;durP1;ratioP1;P1;durP2;ratioP2;P2;SDS_P1;SDS_P2;PMS_P1;PMS_P2;Temp;Humidity;BMP_temperature;BMP_pressure;BME280_temperature;BME280_humidity;BME280_pressure;Samples;Min_cycle;Max_cycle;Signal;HPM_P1;HPM_P2
2022/10/26 00:02:10;;;;;;;;;;;;;;;;;;;;;
2022/10/26 00:07:53;;;;;;;12.38;5.70;;;19.40;90.70;;;;;;6341693;22;20018;-75
2022/10/26 00:11:02;;;;;;;7.75;4.90;;;19.30;90.90;;;;;;6305085;22;19999;-83
2022/10/26 00:13:46;;;;;;;6.28;4.53;;;19.30;90.90;;;;;;6313303;22;20082;-84
2022/10/26 00:16:30;;;;;;;6.57;4.88;;;19.30;90.90;;;;;;6314287;22;19999;-84
2022/10/26 00:22:56;;;;;;;5.43;4.45;;;19.30;90.90;;;;;;6342726;22;20454;-86
2022/10/26 00:25:36;;;;;;;6.40;4.80;;;19.20;90.90;;;;;;6294420;22;20393;-86
2022/10/26 00:35:35;;;;;;;7.15;4.25;;;19.10;90.90;;;;;;6374589;22;20081;-86
2022/10/26 00:38:09;;;;;;;8.70;4.55;;;19.10;91.00;;;;;;6341802;22;20017;-82
2022/10/26 00:40:51;;;;;;;;;;;;;;;;;;;;;
2022/10/26 00:43:48;;;;;;;7.97;4.18;;;19.10;91.10;;;;;;6322959;22;20006;-84
2022/10/26 00:47:07;;;;;;;6.80;4.53;;;19.10;91.00;;;;;;6344822;22;20003;-84
2022/10/26 00:49:58;;;;;;;6.10;4.27;;;19.20;91.00;;;;;;6343857;22;20006;-82
2022/10/26 00:57:07;;;;;;;;;;;;;;;;;;;;;
2022/10/26 01:10:21;;;;;;;6.53;3.85;;;18.70;91.50;;;;;;6372992;22;20029;-86
2022/10/26 01:20:50;;;;;;;5.45;3.80;;;18.90;91.60;;;;;;6372770;22;20087;-84
2022/10/26 01:42:14;;;;;;;5.38;3.63;;;19.10;91.10;;;;;;6215632;23;20013;-85
2022/10/26 01:45:03;;;;;;;6.40;3.17;;;19.10;91.00;;;;;;6194471;23;20000;-83
2022/10/26 01:51:07;;;;;;;3.65;2.85;;;19.00;91.00;;;;;;6254071;22;20007;-83
2022/10/26 01:53:47;;;;;;;8.18;3.58;;;18.90;91.10;;;;;;6346103;22;19998;-84
2022/10/26 01:56:37;;;;;;;5.60;3.10;;;18.90;91.10;;;;;;6346898;22;19998;-84
2022/10/26 01:59:34;;;;;;;5.78;3.70;;;18.80;91.00;;;;;;6336204;22;20006;-82
2022/10/26 02:02:39;;;;;;;5.40;3.60;;;18.80;91.20;;;;;;6317643;22;20064;-88
2022/10/26 02:05:38;;;;;;;4.97;3.75;;;18.80;91.20;;;;;;6349640;22;20002;-89
2022/10/26 02:32:09;;;;;;;5.50;3.35;;;18.80;91.30;;;;;;6367646;22;20370;-80
2022/10/26 02:34:38;;;;;;;6.15;3.55;;;18.80;91.30;;;;;;6368918;22;20331;-81
2022/10/26 02:37:04;;;;;;;5.88;3.90;;;18.80;91.30;;;;;;6370703;22;20051;-91
2022/10/26 02:39:33;;;;;;;5.43;3.53;;;18.80;91.30;;;;;;6370425;22;20024;-92
2022/10/26 02:42:05;;;;;;;4.50;3.08;;;18.90;91.20;;;;;;6370384;22;20439;-92
2022/10/26 02:44:43;;;;;;;5.28;3.78;;;18.90;91.20;;;;;;6369972;22;19994;-89
2022/10/26 02:47:10;;;;;;;6.90;3.50;;;18.90;91.10;;;;;;6369739;22;20431;-91
2022/10/26 02:49:36;;;;;;;5.55;3.40;;;19.00;91.10;;;;;;6372338;22;20002;-92
2022/10/26 02:52:25;;;;;;;5.03;3.30;;;19.00;91.00;;;;;;6372133;22;20073;-89
2022/10/26 02:55:03;;;;;;;6.78;3.20;;;19.00;90.80;;;;;;6370759;22;20011;-90
2022/10/26 02:57:39;;;;;;;6.82;3.25;;;19.00;90.70;;;;;;6372710;22;20010;-92
2022/10/26 03:00:10;;;;;;;3.78;2.67;;;19.00;90.70;;;;;;6372693;22;20074;-88
2022/10/26 03:02:36;;;;;;;7.75;3.60;;;19.00;90.60;;;;;;6372360;22;20002;-91
2022/10/26 03:05:19;;;;;;;6.32;3.03;;;19.10;90.60;;;;;;6373278;22;19998;-89
2022/10/26 03:07:45;;;;;;;4.78;2.70;;;19.10;90.60;;;;;;6372166;22;20358;-88
2022/10/26 03:10:11;;;;;;;5.35;3.03;;;19.10;90.50;;;;;;6371905;22;20022;-88
2022/10/26 03:12:37;;;;;;;5.50;2.95;;;19.10;90.50;;;;;;6372441;22;19998;-88
2022/10/26 03:15:03;;;;;;;3.90;2.70;;;19.10;90.40;;;;;;6372056;22;20033;-88
2022/10/26 03:17:29;;;;;;;6.05;3.17;;;19.10;90.40;;;;;;6371515;22;20032;-87
2022/10/26 03:19:55;;;;;;;4.13;3.30;;;19.00;90.40;;;;;;6371738;22;19998;-88
2022/10/26 03:22:21;;;;;;;6.28;3.03;;;19.00;90.40;;;;;;6372470;22;20052;-89
2022/10/26 03:24:47;;;;;;;3.67;2.95;;;19.00;90.50;;;;;;6371816;22;20010;-89
2022/10/26 03:27:13;;;;;;;6.70;3.13;;;19.00;90.50;;;;;;6371829;22;20078;-87
2022/10/26 03:29:39;;;;;;;5.00;3.03;;;19.00;90.60;;;;;;6371523;22;19998;-87
2022/10/26 03:32:05;;;;;;;3.78;2.90;;;19.00;90.50;;;;;;6372066;22;20010;-87
2022/10/26 03:34:31;;;;;;;9.30;4.00;;;19.00;90.50;;;;;;6371666;22;19998;-86
2022/10/26 03:36:57;;;;;;;9.05;3.88;;;18.90;90.40;;;;;;6371602;22;20010;-86
2022/10/26 03:39:23;;;;;;;4.45;3.30;;;18.80;90.50;;;;;;6371105;22;20424;-86
2022/10/26 03:41:49;;;;;;;4.15;3.42;;;18.70;90.70;;;;;;6372298;22;20013;-87
2022/10/26 03:44:15;;;;;;;6.45;3.90;;;18.70;90.80;;;;;;6371455;22;19998;-92
2022/10/26 03:46:40;;;;;;;7.47;3.75;;;18.70;90.80;;;;;;6371814;22;20005;-91
2022/10/26 03:49:06;;;;;;;7.78;4.00;;;18.60;90.90;;;;;;6372306;22;20316;-91
2022/10/26 03:51:32;;;;;;;6.25;4.00;;;18.60;91.00;;;;;;6344329;22;20056;-91
2022/10/26 03:53:57;;;;;;;6.38;3.60;;;18.60;91.10;;;;;;6372100;22;20063;-92
2022/10/26 03:56:23;;;;;;;5.35;3.58;;;18.40;91.30;;;;;;6371641;22;20131;-94
2022/10/26 03:58:48;;;;;;;6.05;3.22;;;18.30;91.40;;;;;;6371767;22;20018;-93
2022/10/26 04:01:14;;;;;;;9.55;3.53;;;18.30;91.40;;;;;;6343796;22;20313;-91
2022/10/26 04:03:40;;;;;;;6.18;3.85;;;18.30;91.40;;;;;;6372214;22;20002;-93
2022/10/26 04:06:06;;;;;;;5.30;3.13;;;18.40;91.40;;;;;;6372086;22;20412;-94
2022/10/26 04:08:31;;;;;;;9.02;3.35;;;18.40;91.40;;;;;;6372677;22;20415;-93
2022/10/26 04:10:57;;;;;;;5.15;3.38;;;18.40;91.40;;;;;;6371850;22;19998;-93
2022/10/26 04:13:23;;;;;;;7.43;4.03;;;18.30;91.50;;;;;;6372207;22;20408;-91
2022/10/26 04:15:49;;;;;;;5.65;3.65;;;18.30;91.50;;;;;;6371519;22;20002;-92
2022/10/26 04:18:15;;;;;;;4.38;3.60;;;18.30;91.50;;;;;;6371223;22;20301;-93
2022/10/26 04:20:41;;;;;;;5.95;3.25;;;18.20;91.50;;;;;;6372001;22;20052;-93
2022/10/26 04:23:10;;;;;;;4.95;3.40;;;18.30;91.60;;;;;;6343713;22;20336;-93
2022/10/26 04:25:36;;;;;;;5.65;3.70;;;18.20;91.60;;;;;;6371347;22;20002;-88
2022/10/26 04:28:04;;;;;;;5.32;3.40;;;18.10;91.80;;;;;;6370905;22;19994;-87
2022/10/26 04:30:31;;;;;;;5.97;3.50;;;18.10;91.70;;;;;;6371324;22;20328;-87
2022/10/26 04:32:56;;;;;;;4.00;2.83;;;18.10;91.80;;;;;;6370415;22;20010;-90
2022/10/26 04:35:22;;;;;;;5.03;3.45;;;18.20;91.90;;;;;;6370634;22;20009;-87
2022/10/26 04:37:48;;;;;;;9.90;3.08;;;18.20;91.80;;;;;;6369979;22;19998;-92
2022/10/26 04:40:15;;;;;;;4.55;3.38;;;18.20;91.70;;;;;;6371523;22;20003;-91
2022/10/26 04:42:42;;;;;;;7.03;3.72;;;18.20;91.70;;;;;;6370779;22;20014;-88
2022/10/26 04:45:08;;;;;;;6.07;3.60;;;18.20;91.70;;;;;;6370692;22;20070;-89
2022/10/26 04:47:34;;;;;;;5.35;3.38;;;18.20;91.80;;;;;;6342048;22;20030;-89
2022/10/26 04:50:00;;;;;;;4.47;3.15;;;18.10;91.90;;;;;;6371337;22;20096;-89
2022/10/26 04:52:26;;;;;;;4.80;3.53;;;18.10;92.00;;;;;;6371779;22;20073;-90
2022/10/26 04:54:51;;;;;;;5.00;3.03;;;18.10;92.00;;;;;;6342856;22;20009;-89
2022/10/26 04:57:17;;;;;;;3.80;3.15;;;18.10;92.00;;;;;;6370667;22;20006;-89
2022/10/26 04:59:43;;;;;;;5.13;3.20;;;18.10;92.00;;;;;;6371258;22;20013;-89
2022/10/26 05:02:08;;;;;;;4.20;3.00;;;18.20;92.00;;;;;;6371342;22;20026;-90
2022/10/26 05:04:34;;;;;;;5.45;3.20;;;18.30;92.00;;;;;;6371474;22;19998;-90
2022/10/26 05:07:00;;;;;;;6.10;3.20;;;18.30;91.90;;;;;;6369757;22;19998;-90
2022/10/26 05:09:25;;;;;;;3.25;2.88;;;18.30;91.80;;;;;;6370230;22;20324;-92
2022/10/26 05:11:51;;;;;;;6.43;2.95;;;18.40;91.80;;;;;;6369775;22;20013;-90
2022/10/26 05:14:16;;;;;;;10.10;3.40;;;18.40;91.70;;;;;;6371130;22;20159;-91
2022/10/26 05:16:43;;;;;;;4.18;2.78;;;18.50;91.60;;;;;;6370541;22;20005;-83
2022/10/26 05:19:09;;;;;;;4.60;2.65;;;18.50;91.50;;;;;;6369889;22;20029;-86
2022/10/26 05:21:35;;;;;;;6.57;2.80;;;18.60;91.40;;;;;;6370002;22;20293;-85
2022/10/26 05:24:01;;;;;;;5.30;2.67;;;18.60;91.20;;;;;;6369543;22;20029;-86
2022/10/26 05:26:26;;;;;;;4.03;2.50;;;18.60;91.00;;;;;;6370486;22;20473;-87
2022/10/26 05:28:52;;;;;;;4.00;2.30;;;18.60;91.10;;;;;;6369443;22;19994;-90
2022/10/26 05:31:18;;;;;;;5.15;2.70;;;18.60;91.00;;;;;;6370985;22;20432;-93
2022/10/26 05:33:49;;;;;;;6.35;2.97;;;18.60;91.00;;;;;;6342301;22;20007;-91
2022/10/26 05:36:15;;;;;;;;;;;18.60;91.00;;;;;;6369244;22;20087;-87
2022/10/26 05:38:41;;;;;;;3.58;2.33;;;18.60;90.90;;;;;;6369230;22;20259;-91
2022/10/26 05:41:06;;;;;;;3.65;2.22;;;18.50;90.90;;;;;;6368926;22;20003;-85
2022/10/26 05:43:32;;;;;;;6.68;2.70;;;18.50;91.00;;;;;;6369271;22;20099;-85
2022/10/26 05:45:57;;;;;;;4.35;2.40;;;18.50;91.10;;;;;;6368095;22;20055;-82
2022/10/26 05:48:23;;;;;;;4.82;2.85;;;18.50;91.10;;;;;;6368906;22;20002;-79
2022/10/26 05:50:49;;;;;;;5.70;3.38;;;18.50;91.00;;;;;;6368193;22;19999;-86
2022/10/26 05:53:14;;;;;;;5.15;3.08;;;18.50;91.00;;;;;;6368482;22;20401;-89
2022/10/26 05:55:41;;;;;;;6.47;2.97;;;18.40;91.10;;;;;;6368864;22;20005;-89
2022/10/26 05:58:15;;;;;;;4.80;2.35;;;18.30;91.10;;;;;;6370178;22;19998;-83
2022/10/26 06:01:06;;;;;;;6.70;3.20;;;18.30;91.20;;;;;;6369188;22;20001;-80
2022/10/26 06:03:56;;;;;;;5.03;2.78;;;18.30;91.30;;;;;;6368639;22;19999;-84
2022/10/26 06:06:23;;;;;;;4.07;2.33;;;18.30;91.40;;;;;;6370263;22;20022;-83
2022/10/26 06:08:49;;;;;;;6.32;3.10;;;18.30;91.40;;;;;;6372032;22;20016;-84
2022/10/26 06:11:15;;;;;;;3.97;2.85;;;18.40;91.40;;;;;;6374584;22;20423;-82
2022/10/26 06:13:41;;;;;;;4.90;2.85;;;18.30;91.30;;;;;;6369530;22;20037;-85
2022/10/26 06:16:36;;;;;;;7.78;3.50;;;18.30;91.50;;;;;;6345458;22;20017;-84
2022/10/26 06:19:37;;;;;;;5.50;3.78;;;18.30;91.50;;;;;;6370614;22;20005;-83
2022/10/26 06:22:12;;;;;;;4.47;2.88;;;18.20;91.70;;;;;;6315913;22;20017;-84
2022/10/26 06:24:46;;;;;;;5.07;2.72;;;18.20;91.70;;;;;;6337508;22;20007;-83
2022/10/26 06:27:43;;;;;;;4.20;2.75;;;18.10;91.80;;;;;;6356439;22;20006;-81
2022/10/26 06:30:10;;;;;;;3.28;2.33;;;18.20;91.80;;;;;;6337771;22;20025;-84
2022/10/26 06:32:38;;;;;;;4.00;2.40;;;18.30;91.80;;;;;;6337580;22;20006;-79
2022/10/26 06:35:32;;;;;;;10.23;2.50;;;18.30;91.60;;;;;;6335265;22;20010;-81
2022/10/26 06:38:03;;;;;;;3.90;2.40;;;18.40;91.60;;;;;;6341020;22;19998;-82
2022/10/26 06:40:34;;;;;;;3.92;2.50;;;18.50;91.50;;;;;;6363992;22;20002;-82
2022/10/26 06:43:03;;;;;;;4.95;2.85;;;18.60;91.30;;;;;;6362533;22;20761;-83
2022/10/26 06:45:30;;;;;;;8.38;3.13;;;18.60;91.20;;;;;;6341398;22;20298;-83
2022/10/26 06:48:02;;;;;;;3.50;2.42;;;18.70;91.10;;;;;;6345203;22;19998;-85
2022/10/26 06:50:36;;;;;;;5.70;2.45;;;18.80;91.00;;;;;;6369218;22;20021;-87
2022/10/26 06:53:17;;;;;;;6.53;2.67;;;18.80;91.00;;;;;;6367168;22;20413;-84
2022/10/26 06:55:46;;;;;;;5.18;2.85;;;18.80;90.90;;;;;;6339908;22;20002;-81
2022/10/26 06:58:18;;;;;;;5.78;2.40;;;18.90;90.80;;;;;;6340317;22;20350;-85
2022/10/26 07:00:45;;;;;;;10.80;3.03;;;18.90;90.80;;;;;;6359827;22;20045;-77
2022/10/26 07:03:11;;;;;;;4.68;2.35;;;19.00;90.70;;;;;;6368137;22;20097;-77
2022/10/26 07:05:37;;;;;;;5.93;2.67;;;19.00;90.50;;;;;;6365151;22;20022;-84
2022/10/26 07:08:04;;;;;;;5.93;2.70;;;19.00;90.40;;;;;;6374126;22;20017;-92
2022/10/26 07:10:30;;;;;;;5.10;2.50;;;18.90;90.50;;;;;;6344928;22;20002;-93
2022/10/26 07:12:57;;;;;;;4.38;2.25;;;18.90;90.60;;;;;;6343114;22;20009;-89
2022/10/26 07:15:23;;;;;;;4.35;2.33;;;19.00;90.70;;;;;;6368885;22;20287;-83
2022/10/26 07:17:50;;;;;;;6.60;2.03;;;19.10;90.60;;;;;;6339709;22;20022;-81
2022/10/26 07:20:18;;;;;;;4.93;2.33;;;19.10;90.40;;;;;;6367461;22;20488;-83
2022/10/26 07:22:53;;;;;;;4.20;2.58;;;19.10;90.30;;;;;;6367624;22;20081;-84
2022/10/26 07:25:19;;;;;;;7.88;2.65;;;19.10;90.30;;;;;;6371058;22;20002;-85
2022/10/26 07:27:45;;;;;;;6.07;2.88;;;19.20;90.30;;;;;;6368707;22;19999;-84
2022/10/26 07:30:13;;;;;;;5.78;2.67;;;19.20;90.20;;;;;;6338893;22;20006;-85
2022/10/26 07:32:39;;;;;;;4.07;2.60;;;19.20;90.30;;;;;;6340365;22;20014;-81
2022/10/26 07:35:06;;;;;;;6.82;3.17;;;19.30;90.20;;;;;;6370067;22;20002;-84
2022/10/26 07:37:32;;;;;;;6.65;2.72;;;19.30;90.20;;;;;;6372720;22;20002;-84
2022/10/26 07:39:58;;;;;;;4.97;2.40;;;19.40;90.20;;;;;;6370301;22;20029;-84
2022/10/26 07:42:24;;;;;;;4.53;2.35;;;19.50;90.20;;;;;;6370199;22;20002;-85
2022/10/26 07:44:49;;;;;;;5.18;2.83;;;19.50;90.20;;;;;;6375950;22;19994;-86
2022/10/26 07:47:15;;;;;;;6.47;3.40;;;19.60;90.10;;;;;;6371851;22;20074;-81
2022/10/26 07:49:41;;;;;;;4.55;2.65;;;19.60;90.00;;;;;;6370419;22;20037;-82
2022/10/26 07:52:06;;;;;;;5.97;2.95;;;19.70;89.80;;;;;;6369344;22;19998;-84
2022/10/26 07:54:32;;;;;;;5.45;3.15;;;19.80;89.70;;;;;;6374222;22;20030;-81
2022/10/26 07:56:58;;;;;;;9.05;3.53;;;19.90;89.80;;;;;;6370775;22;20005;-79
2022/10/26 07:59:24;;;;;;;4.68;3.00;;;19.90;89.90;;;;;;6371032;22;19999;-79
2022/10/26 08:01:51;;;;;;;9.27;2.72;;;20.00;89.80;;;;;;6343171;22;20028;-80
2022/10/26 08:04:16;;;;;;;6.97;3.25;;;20.10;89.50;;;;;;6369762;22;20028;-82
2022/10/26 08:06:42;;;;;;;8.60;3.13;;;20.20;89.50;;;;;;6370559;22;20019;-81
2022/10/26 08:09:08;;;;;;;4.10;3.10;;;20.30;89.60;;;;;;6370658;22;20037;-84
2022/10/26 08:11:35;;;;;;;6.50;3.10;;;20.30;89.60;;;;;;6370058;22;20009;-80
2022/10/26 08:14:05;;;;;;;5.72;3.10;;;20.30;89.60;;;;;;6368758;22;20005;-81
2022/10/26 08:16:30;;;;;;;6.47;3.20;;;20.40;89.40;;;;;;6369515;22;20009;-79
2022/10/26 08:18:56;;;;;;;4.85;2.83;;;20.40;89.30;;;;;;6369465;22;20022;-79
2022/10/26 08:21:24;;;;;;;5.18;3.00;;;20.50;89.70;;;;;;6340619;22;20009;-82
2022/10/26 08:23:50;;;;;;;6.25;2.75;;;20.50;89.10;;;;;;6340201;22;20005;-82
2022/10/26 08:26:17;;;;;;;7.25;2.63;;;20.50;89.20;;;;;;6368933;22;20047;-77
2022/10/26 08:28:43;;;;;;;6.53;3.33;;;20.50;89.30;;;;;;6373321;22;19994;-82
2022/10/26 08:31:08;;;;;;;5.15;3.35;;;20.60;89.40;;;;;;6373714;22;20021;-82
2022/10/26 08:33:35;;;;;;;5.57;3.17;;;20.60;89.40;;;;;;6370449;22;20024;-81
2022/10/26 08:36:03;;;;;;;6.80;3.45;;;20.60;89.30;;;;;;6368669;22;20463;-83
2022/10/26 08:38:32;;;;;;;9.73;3.10;;;20.70;89.30;;;;;;6368665;22;20069;-79
2022/10/26 08:41:04;;;;;;;7.45;3.15;;;20.70;89.00;;;;;;6367204;22;20067;-80
2022/10/26 08:44:15;;;;;;;9.38;3.40;;;20.80;89.00;;;;;;6367869;22;20065;-78
2022/10/26 08:46:46;;;;;;;5.13;3.17;;;20.80;88.60;;;;;;6325485;22;20032;-82
2022/10/26 08:49:21;;;;;;;7.25;2.70;;;20.90;88.80;;;;;;6369837;22;20002;-84
2022/10/26 08:51:51;;;;;;;6.85;3.15;;;21.00;89.00;;;;;;6368013;22;20002;-83
2022/10/26 08:54:37;;;;;;;6.50;2.97;;;21.00;88.70;;;;;;6369574;22;20018;-84
2022/10/26 08:57:22;;;;;;;6.28;3.67;;;21.10;88.40;;;;;;6340507;22;20659;-84
2022/10/26 09:00:01;;;;;;;6.50;2.55;;;21.10;88.20;;;;;;6368713;22;20025;-84
2022/10/26 09:02:27;;;;;;;4.03;2.67;;;21.20;88.00;;;;;;6368172;22;20006;-82
2022/10/26 09:04:58;;;;;;;3.75;2.40;;;21.30;87.30;;;;;;6369728;22;20001;-86
2022/10/26 09:07:45;;;;;;;6.07;3.33;;;21.50;87.30;;;;;;6346750;22;20002;-84
2022/10/26 09:10:46;;;;;;;4.18;2.83;;;21.60;86.40;;;;;;6368615;22;20116;-83
2022/10/26 09:13:23;;;;;;;;;;;21.70;86.40;;;;;;6341769;22;20462;-82
2022/10/26 09:16:22;;;;;;;5.78;2.50;;;21.90;86.10;;;;;;6372581;22;19976;-82
2022/10/26 09:19:17;;;;;;;5.55;2.60;;;22.00;86.00;;;;;;6290634;22;20269;-81
2022/10/26 09:22:03;;;;;;;7.43;2.78;;;22.20;85.30;;;;;;6360392;22;20045;-80
2022/10/26 09:24:32;;;;;;;6.15;2.50;;;22.40;84.70;;;;;;6368372;22;20069;-83
2022/10/26 09:27:30;;;;;;;3.75;2.60;;;22.60;84.30;;;;;;6342718;22;19998;-84
2022/10/26 09:29:59;;;;;;;6.57;2.80;;;22.80;83.80;;;;;;6368797;22;20014;-80
2022/10/26 09:32:27;;;;;;;5.35;2.83;;;23.10;83.60;;;;;;6368807;22;20021;-82
2022/10/26 09:35:12;;;;;;;3.50;2.67;;;23.20;83.00;;;;;;6343988;22;20002;-86
2022/10/26 09:37:45;;;;;;;10.30;3.55;;;23.30;82.70;;;;;;6376153;22;20022;-82
2022/10/26 09:40:20;;;;;;;7.80;3.45;;;23.40;82.20;;;;;;6345459;22;20034;-84
2022/10/26 09:42:53;;;;;;;4.53;2.92;;;23.50;80.90;;;;;;6340771;22;20052;-82
2022/10/26 09:45:32;;;;;;;6.00;3.20;;;23.50;81.20;;;;;;6367015;22;20051;-82
2022/10/26 09:48:22;;;;;;;7.55;3.47;;;23.50;80.70;;;;;;6372907;22;20025;-85
2022/10/26 09:50:50;;;;;;;;;;;23.60;81.30;;;;;;6371681;22;19998;-83
2022/10/26 09:53:16;;;;;;;6.80;3.80;;;23.70;80.40;;;;;;6341657;22;19977;-83
2022/10/26 09:55:45;;;;;;;4.97;2.88;;;23.80;81.10;;;;;;6371373;22;20372;-82
2022/10/26 09:58:28;;;;;;;5.18;3.33;;;23.80;81.10;;;;;;6369263;22;20328;-85
2022/10/26 10:00:54;;;;;;;6.25;2.80;;;24.00;81.00;;;;;;6370362;22;20002;-82
2022/10/26 10:03:28;;;;;;;5.22;3.00;;;24.20;81.00;;;;;;6373455;22;19994;-82
2022/10/26 10:06:17;;;;;;;5.80;2.90;;;24.40;80.70;;;;;;6373929;22;19994;-85
2022/10/26 10:09:14;;;;;;;6.53;3.40;;;24.60;80.20;;;;;;6371571;22;20334;-85
2022/10/26 10:11:55;;;;;;;7.73;2.47;;;24.80;79.50;;;;;;6343071;22;20029;-86
2022/10/26 10:14:30;;;;;;;7.63;3.72;;;25.00;79.20;;;;;;6370537;22;20216;-80
2022/10/26 10:17:02;;;;;;;8.77;3.90;;;25.10;78.70;;;;;;6367683;22;20006;-78
2022/10/26 10:19:34;;;;;;;12.02;4.53;;;25.10;78.20;;;;;;6367588;22;20077;-79
2022/10/26 10:22:21;;;;;;;5.15;3.30;;;25.00;77.90;;;;;;6368898;22;20009;-84
2022/10/26 10:24:55;;;;;;;6.68;4.03;;;24.80;78.10;;;;;;6339255;22;19998;-84
2022/10/26 10:27:25;;;;;;;6.72;3.03;;;24.70;78.30;;;;;;6367489;22;20485;-80
2022/10/26 10:30:19;;;;;;;6.80;3.80;;;24.60;78.60;;;;;;6370064;22;20002;-81
2022/10/26 10:32:45;;;;;;;7.97;3.65;;;24.50;78.50;;;;;;6368301;22;20006;-79
2022/10/26 10:35:28;;;;;;;6.38;3.47;;;24.40;78.80;;;;;;6368929;22;20051;-80
2022/10/26 10:37:54;;;;;;;13.75;4.90;;;24.30;77.90;;;;;;6369021;22;19998;-82
2022/10/26 10:40:26;;;;;;;7.38;4.38;;;24.20;78.50;;;;;;6368639;22;20002;-82
2022/10/26 10:43:01;;;;;;;3.85;2.92;;;24.10;79.00;;;;;;6371645;22;20028;-82
2022/10/26 10:45:30;;;;;;;7.28;3.08;;;24.00;79.50;;;;;;6346332;22;20354;-82
2022/10/26 10:48:00;;;;;;;6.00;3.58;;;23.90;79.70;;;;;;6374651;22;19990;-86
2022/10/26 10:50:29;;;;;;;9.35;3.65;;;23.90;80.00;;;;;;6371194;22;20082;-84
2022/10/26 10:53:12;;;;;;;9.32;4.50;;;23.90;80.20;;;;;;6341493;22;20083;-87
2022/10/26 10:55:39;;;;;;;6.03;3.55;;;23.90;80.40;;;;;;6370515;22;20007;-86
2022/10/26 10:58:22;;;;;;;6.55;3.67;;;23.80;80.30;;;;;;6372661;22;19999;-87
2022/10/26 11:00:48;;;;;;;7.45;3.65;;;23.80;80.60;;;;;;6342155;22;20328;-86
2022/10/26 11:03:40;;;;;;;9.55;4.13;;;23.70;80.80;;;;;;6369056;22;20005;-86
2022/10/26 11:06:14;;;;;;;6.97;3.72;;;23.60;81.00;;;;;;6356652;22;20428;-85
2022/10/26 11:08:49;;;;;;;8.48;3.97;;;23.50;81.30;;;;;;6368609;22;19999;-86
2022/10/26 11:11:35;;;;;;;7.03;3.28;;;23.50;81.50;;;;;;6372614;22;20002;-86
2022/10/26 11:14:23;;;;;;;6.38;3.55;;;23.50;81.70;;;;;;6371256;22;20124;-85
2022/10/26 11:17:17;;;;;;;7.93;3.67;;;23.60;81.90;;;;;;6343624;22;20006;-83
2022/10/26 11:19:55;;;;;;;5.95;3.58;;;23.60;82.00;;;;;;6370882;22;20002;-80
2022/10/26 11:22:36;;;;;;;6.63;3.50;;;23.60;81.90;;;;;;6370944;22;20045;-82
2022/10/26 11:25:04;;;;;;;7.60;3.20;;;23.60;82.00;;;;;;6345733;22;20002;-84
2022/10/26 11:27:59;;;;;;;7.07;3.47;;;23.70;82.20;;;;;;6372017;22;19999;-84
2022/10/26 11:30:37;;;;;;;6.95;3.70;;;23.80;82.30;;;;;;6327087;22;20021;-83
2022/10/26 11:33:33;;;;;;;7.47;3.58;;;23.90;81.70;;;;;;6374217;22;20077;-83
2022/10/26 11:36:30;;;;;;;6.43;3.10;;;24.00;81.50;;;;;;6372630;22;20075;-84
2022/10/26 11:39:19;;;;;;;8.18;4.47;;;24.20;81.00;;;;;;6371686;22;20005;-84
2022/10/26 11:42:05;;;;;;;7.38;4.97;;;24.30;80.20;;;;;;6371545;22;20427;-82
2022/10/26 11:44:51;;;;;;;6.32;4.20;;;24.40;80.00;;;;;;6343241;22;20124;-83
2022/10/26 11:47:47;;;;;;;6.35;3.60;;;24.70;80.10;;;;;;6369820;22;19998;-81
2022/10/26 11:50:22;;;;;;;4.95;3.22;;;25.40;79.00;;;;;;6368496;22;20001;-81
2022/10/26 11:53:03;;;;;;;9.35;4.13;;;26.00;77.10;;;;;;6342969;22;20026;-88
2022/10/26 11:55:30;;;;;;;6.60;2.83;;;26.30;75.60;;;;;;6344471;22;20014;-86
2022/10/26 11:57:57;;;;;;;4.20;2.33;;;26.30;74.30;;;;;;6375557;22;20320;-86
2022/10/26 12:00:25;;;;;;;7.70;3.97;;;26.70;74.10;;;;;;6371595;22;20009;-82
2022/10/26 12:03:00;;;;;;;7.43;3.55;;;27.40;72.00;;;;;;6342329;22;20013;-84
2022/10/26 12:05:56;;;;;;;4.97;3.17;;;28.20;70.40;;;;;;6369582;22;20305;-82
2022/10/26 12:08:28;;;;;;;6.00;3.40;;;28.90;69.10;;;;;;6350046;22;19999;-85
2022/10/26 12:11:33;;;;;;;6.32;3.30;;;29.40;67.80;;;;;;6369806;22;19994;-83
2022/10/26 12:14:07;;;;;;;6.72;3.70;;;29.80;66.00;;;;;;6335290;22;20018;-84
2022/10/26 12:16:51;;;;;;;7.25;3.35;;;30.10;65.60;;;;;;6370089;22;19998;-86
2022/10/26 12:19:34;;;;;;;7.35;3.92;;;30.30;64.80;;;;;;6373273;22;20013;-84
2022/10/26 12:22:00;;;;;;;5.93;3.30;;;30.30;64.10;;;;;;6340698;22;20006;-81
2022/10/26 12:24:34;;;;;;;5.25;3.20;;;30.30;64.20;;;;;;6369568;22;20009;-83
2022/10/26 12:27:04;;;;;;;6.60;2.97;;;30.40;63.80;;;;;;6341482;22;20003;-82
2022/10/26 12:29:45;;;;;;;9.93;5.82;;;30.50;63.50;;;;;;6342077;22;20007;-82
2022/10/26 12:32:40;;;;;;;10.43;5.82;;;30.70;64.10;;;;;;6339130;22;20481;-83
2022/10/26 12:35:27;;;;;;;10.23;6.43;;;30.80;64.80;;;;;;6284171;22;20027;-83
2022/10/26 12:37:53;;;;;;;11.77;6.20;;;31.10;64.50;;;;;;6341637;22;20056;-84
2022/10/26 12:40:41;;;;;;;14.77;8.30;;;31.30;64.10;;;;;;6371213;22;20002;-83
2022/10/26 12:43:13;;;;;;;11.57;6.68;;;31.40;63.50;;;;;;6342324;22;20009;-83
2022/10/26 12:45:44;;;;;;;15.88;7.28;;;31.50;63.40;;;;;;6369470;22;19998;-83
2022/10/26 12:48:26;;;;;;;10.73;6.57;;;31.50;63.00;;;;;;6368813;22;19995;-82
2022/10/26 12:50:52;;;;;;;12.57;6.63;;;31.70;62.50;;;;;;6368719;22;20005;-83
2022/10/26 12:53:20;;;;;;;11.88;6.03;;;31.60;61.70;;;;;;6367532;22;20007;-84
2022/10/26 12:55:46;;;;;;;15.23;7.50;;;31.40;62.20;;;;;;6369466;22;20006;-83
2022/10/26 12:58:33;;;;;;;11.55;7.07;;;31.10;62.50;;;;;;6369538;22;20012;-83
2022/10/26 13:00:59;;;;;;;11.13;7.03;;;30.60;63.40;;;;;;6368808;22;20006;-81
2022/10/26 13:04:02;;;;;;;16.05;7.55;;;30.10;64.00;;;;;;6369344;22;20002;-84
2022/10/26 13:06:27;;;;;;;8.43;6.15;;;29.60;64.80;;;;;;6369124;22;19999;-82
2022/10/26 13:08:55;;;;;;;14.73;7.10;;;29.20;65.50;;;;;;6369029;22;20004;-81
2022/10/26 13:11:34;;;;;;;11.48;6.28;;;28.80;66.20;;;;;;6370197;22;20006;-84
2022/10/26 13:14:02;;;;;;;9.88;6.13;;;28.50;67.40;;;;;;6368566;22;20074;-85
2022/10/26 13:16:29;;;;;;;13.30;7.07;;;28.10;68.10;;;;;;6368929;22;20002;-84
2022/10/26 13:18:56;;;;;;;12.25;6.95;;;27.90;69.10;;;;;;6341887;22;20003;-81
2022/10/26 13:21:23;;;;;;;11.60;6.72;;;27.70;69.80;;;;;;6369342;22;20009;-82
2022/10/26 13:23:57;;;;;;;14.38;7.10;;;27.50;70.60;;;;;;6356332;22;20002;-83
2022/10/26 13:26:28;;;;;;;13.57;7.22;;;27.30;71.20;;;;;;6344248;22;20006;-84
2022/10/26 13:29:02;;;;;;;11.23;7.13;;;27.20;71.50;;;;;;6369327;22;19998;-83
2022/10/26 13:31:27;;;;;;;13.75;7.47;;;27.00;71.80;;;;;;6369775;22;20089;-83
2022/10/26 13:33:58;;;;;;;13.18;6.90;;;26.80;72.00;;;;;;6368842;22;20082;-84
2022/10/26 13:36:35;;;;;;;12.27;7.57;;;26.70;72.30;;;;;;6370341;22;19998;-83
2022/10/26 13:39:24;;;;;;;14.68;6.85;;;26.50;73.00;;;;;;6370131;22;20118;-83
2022/10/26 13:41:53;;;;;;;10.90;6.57;;;26.30;73.70;;;;;;6369507;22;20362;-83
2022/10/26 13:44:32;;;;;;;10.77;7.13;;;26.20;74.00;;;;;;6370392;22;20001;-82
2022/10/26 13:47:02;;;;;;;12.20;7.05;;;26.00;74.20;;;;;;6369668;22;20315;-84
2022/10/26 13:49:37;;;;;;;7.68;6.10;;;25.90;74.60;;;;;;6370251;22;20028;-84
2022/10/26 13:52:05;;;;;;;10.50;7.05;;;25.80;74.80;;;;;;6370874;22;20069;-84
2022/10/26 13:54:42;;;;;;;12.82;7.18;;;25.70;75.20;;;;;;6370239;22;20034;-84
2022/10/26 13:57:20;;;;;;;12.80;7.35;;;25.60;75.50;;;;;;6342421;22;19998;-83
2022/10/26 13:59:46;;;;;;;12.50;7.10;;;25.60;75.70;;;;;;6370807;22;20001;-85
2022/10/26 14:02:18;;;;;;;21.33;7.47;;;25.60;75.90;;;;;;6370883;22;19998;-84
2022/10/26 14:04:51;;;;;;;10.68;6.55;;;25.50;75.90;;;;;;6370811;22;19995;-84
2022/10/26 14:07:25;;;;;;;14.73;6.53;;;25.50;76.20;;;;;;6374133;22;20009;-85
2022/10/26 14:09:56;;;;;;;11.38;6.18;;;25.40;76.20;;;;;;6370601;22;19995;-83
2022/10/26 14:12:24;;;;;;;12.45;6.05;;;25.40;76.30;;;;;;6368147;22;20006;-83
2022/10/26 14:14:51;;;;;;;10.80;6.28;;;25.40;76.60;;;;;;6357584;22;19998;-83
2022/10/26 14:17:23;;;;;;;11.82;6.82;;;25.30;76.70;;;;;;6369651;22;20002;-83
2022/10/26 14:19:50;;;;;;;8.93;6.40;;;25.30;76.80;;;;;;6358852;22;20002;-82
2022/10/26 14:22:27;;;;;;;12.13;6.25;;;25.20;76.70;;;;;;6375897;22;20097;-84
2022/10/26 14:24:57;;;;;;;9.27;6.38;;;25.20;76.80;;;;;;6370940;22;20074;-81
2022/10/26 14:27:26;;;;;;;11.82;5.97;;;25.10;76.90;;;;;;6371222;22;19998;-81
2022/10/26 14:29:53;;;;;;;9.75;5.63;;;25.00;77.00;;;;;;6370016;22;19998;-84
2022/10/26 14:32:26;;;;;;;12.40;6.25;;;25.00;77.20;;;;;;6341046;22;20466;-84
2022/10/26 14:34:53;;;;;;;10.50;6.88;;;24.90;77.50;;;;;;6368932;22;20006;-84
2022/10/26 14:37:50;;;;;;;13.48;6.03;;;24.80;77.40;;;;;;6370346;22;20058;-85
2022/10/26 14:40:19;;;;;;;10.75;6.60;;;24.80;77.70;;;;;;6369835;22;20007;-83
2022/10/26 14:42:51;;;;;;;16.15;7.40;;;24.60;77.80;;;;;;6368756;22;20009;-84
2022/10/26 14:45:35;;;;;;;11.57;6.40;;;24.60;78.00;;;;;;6369451;22;20420;-84
2022/10/26 14:48:02;;;;;;;13.15;7.07;;;24.50;78.30;;;;;;6369242;22;20009;-85